KHEY/HEY METAR and TAF weather

Enter ICAO airport designator
Station Type Date Time Source
KHEY METAR 2020/09/26 11:58 UTC NOAA

KHEY 261158Z AUTO 00000KT 4SM BR FEW025 18/18 A3001 RMK AO2 SLP162 T01810176 10190 20172 52013


Station Type Date Time Source
KHEY Decoded METAR 2020/09/26 11:58 UTC NOAA

Hanchey AHP / Ozark, AL, United States (KHEY) 31-21N 085-40W
Sep 26, 2020 - 07:58 AM EDT / 2020.09.26 1158 UTC
Wind: Calm:0
Visibility: 4 mile(s):0
Sky conditions: mostly clear
Weather: mist
Temperature: 64.6 F (18.1 C)
Dew Point: 63.7 F (17.6 C)
Relative Humidity: 96%
Pressure (altimeter): 30.01 in. Hg (1016 hPa)
Pressure tendency: 0.04 inches (1.3 hPa) higher than three hours ago
ob: KHEY 261158Z AUTO 00000KT 4SM BR FEW025 18/18 A3001 RMK AO2 SLP162 T01810176 10190 20172 52013
cycle: 12

Station Type Date Time Source
KHEY TAF UTC NOAA

Error!

Example: see airport list